Time;durP1;ratioP1;P1;durP2;ratioP2;P2;SDS_P1;SDS_P2;PMS_P1;PMS_P2;Temp;Humidity;BMP_temperature;BMP_pressure;BME280_temperature;BME280_humidity;BME280_pressure;Samples;Min_cycle;Max_cycle;Signal;HPM_P1;HPM_P2
2021/12/03 18:57:20;;;;;;;42.53;32.85;;;2.40;99.90;;;;;;5030097;28;20049;-63
2021/12/03 19:00:01;;;;;;;49.50;38.40;;;2.50;99.90;;;;;;5017493;28;20045;-64
2021/12/03 19:02:28;;;;;;;44.13;34.80;;;2.50;99.90;;;;;;5025691;28;20053;-63
2021/12/03 19:07:33;;;;;;;41.70;33.45;;;5.10;99.90;;;;;;5031000;28;20085;-63
2021/12/03 19:10:04;;;;;;;51.88;40.13;;;5.90;99.90;;;;;;5022653;28;20046;-63
2021/12/03 19:12:33;;;;;;;45.38;34.92;;;2.50;99.90;;;;;;5024833;28;20389;-62
2021/12/03 19:15:00;;;;;;;48.67;36.30;;;5.90;99.90;;;;;;5007023;28;20053;-62
2021/12/03 19:17:30;;;;;;;51.00;39.80;;;3.30;99.90;;;;;;5031547;28;20076;-62
2021/12/03 19:19:59;;;;;;;54.45;41.65;;;5.90;99.90;;;;;;5023080;28;20046;-62
2021/12/03 19:22:26;;;;;;;50.38;38.92;;;3.30;99.90;;;;;;5022507;28;20792;-62
2021/12/03 19:24:57;;;;;;;45.67;36.65;;;5.70;99.90;;;;;;5005962;28;20069;-62
2021/12/03 19:27:26;;;;;;;47.05;36.28;;;6.00;99.90;;;;;;5023793;28;20049;-61
2021/12/03 19:29:58;;;;;;;54.28;40.50;;;4.10;99.90;;;;;;5022206;28;20053;-63
2021/12/03 19:32:29;;;;;;;49.63;37.25;;;5.80;99.90;;;;;;5022180;28;20130;-62
2021/12/03 19:34:55;;;;;;;61.60;43.70;;;3.20;99.90;;;;;;5023745;28;20037;-62
2021/12/03 19:37:23;;;;;;;53.58;38.67;;;3.30;99.90;;;;;;5006559;28;20045;-62
2021/12/03 19:39:49;;;;;;;57.42;42.65;;;3.00;99.90;;;;;;5023768;28;20049;-62
2021/12/03 19:42:20;;;;;;;51.08;37.72;;;3.10;99.90;;;;;;5022881;28;20045;-62
2021/12/03 19:47:13;;;;;;;56.85;42.33;;;4.60;99.90;;;;;;5024350;28;20177;-62
2021/12/03 19:50:03;;;;;;;48.90;37.30;;;6.10;99.90;;;;;;5004214;28;20125;-61
2021/12/03 19:52:38;;;;;;;56.05;42.22;;;2.50;99.90;;;;;;5027517;28;20075;-61
2021/12/03 19:55:04;;;;;;;53.33;37.95;;;4.90;99.90;;;;;;5002461;28;20411;-60
2021/12/03 19:57:29;;;;;;;48.38;38.25;;;6.10;99.90;;;;;;5013379;28;20042;-61
2021/12/03 19:59:56;;;;;;;55.13;41.45;;;5.00;99.90;;;;;;5011182;28;20045;-61
2021/12/03 20:02:22;;;;;;;62.35;45.42;;;6.00;99.90;;;;;;5010709;28;20147;-61
2021/12/03 20:04:48;;;;;;;56.88;42.17;;;6.10;99.90;;;;;;5011417;28;20092;-62
2021/12/03 20:07:15;;;;;;;66.40;48.22;;;2.60;99.90;;;;;;5023352;28;20038;-61
2021/12/03 20:09:46;;;;;;;61.20;46.08;;;6.20;99.90;;;;;;5012283;28;20077;-61
2021/12/03 20:12:17;;;;;;;60.95;45.22;;;3.20;99.90;;;;;;5012504;28;20042;-62
2021/12/03 20:14:45;;;;;;;57.15;43.53;;;4.10;99.90;;;;;;4995862;28;20048;-61
2021/12/03 20:17:19;;;;;;;58.80;44.80;;;4.80;99.90;;;;;;5011279;28;20488;-60
2021/12/03 20:19:51;;;;;;;57.40;43.17;;;5.70;99.90;;;;;;5011174;28;20034;-61
2021/12/03 20:22:25;;;;;;;55.88;42.97;;;3.50;99.90;;;;;;5011753;28;20038;-61
2021/12/03 20:27:44;;;;;;;69.78;48.08;;;5.20;99.90;;;;;;5025272;28;20099;-61
2021/12/03 20:33:01;;;;;;;63.50;46.38;;;5.90;99.90;;;;;;5026063;28;20419;-61
2021/12/03 20:38:03;;;;;;;64.85;48.22;;;3.70;99.90;;;;;;5009076;28;20551;-61
2021/12/03 20:40:33;;;;;;;74.07;50.65;;;5.20;99.90;;;;;;5010137;28;20618;-60
2021/12/03 21:09:44;;;;;;;72.45;46.22;;;5.20;99.90;;;;;;5030662;28;20277;-60
2021/12/03 21:12:31;;;;;;;70.47;47.50;;;5.60;99.90;;;;;;5030981;28;20118;-61
2021/12/03 21:15:07;;;;;;;77.05;50.38;;;6.20;99.90;;;;;;5029841;28;20491;-61
2021/12/03 21:20:30;;;;;;;79.20;49.25;;;3.40;99.90;;;;;;4992581;28;20035;-62
2021/12/03 21:23:03;;;;;;;80.32;52.63;;;5.70;99.90;;;;;;4991302;28;20437;-61
2021/12/03 21:25:38;;;;;;;69.30;47.05;;;2.70;99.90;;;;;;4991498;28;20046;-60
2021/12/03 21:28:18;;;;;;;74.65;47.85;;;4.30;99.90;;;;;;4961382;28;20057;-61
2021/12/03 21:30:52;;;;;;;86.35;54.78;;;4.90;99.90;;;;;;4991411;28;20038;-60
2021/12/03 21:43:41;;;;;;;79.13;49.20;;;4.50;99.90;;;;;;4990377;28;20066;-63
2021/12/03 21:46:06;;;;;;;86.55;54.53;;;2.80;99.90;;;;;;4990264;28;20409;-61
2021/12/03 21:48:32;;;;;;;78.90;51.92;;;6.30;99.90;;;;;;4989475;28;20310;-61
2021/12/03 21:50:58;;;;;;;75.00;47.38;;;5.20;99.90;;;;;;4990410;28;20118;-61
2021/12/03 21:53:23;;;;;;;78.15;49.72;;;6.00;99.90;;;;;;4991827;28;20050;-61
2021/12/03 21:55:49;;;;;;;80.47;50.65;;;3.70;99.90;;;;;;4992062;28;20061;-61
2021/12/03 21:58:16;;;;;;;90.50;55.38;;;5.90;99.90;;;;;;4991813;28;20046;-61
2021/12/03 22:00:42;;;;;;;70.97;43.55;;;5.70;99.90;;;;;;5005434;28;20031;-62
2021/12/03 22:03:07;;;;;;;81.25;50.17;;;2.70;99.90;;;;;;4991273;28;20046;-61
2021/12/03 22:05:34;;;;;;;89.40;54.25;;;2.90;99.90;;;;;;4989331;28;20096;-62
2021/12/03 22:08:00;;;;;;;90.80;54.83;;;4.20;99.90;;;;;;4989947;28;20396;-61
2021/12/03 22:10:26;;;;;;;90.53;54.60;;;5.00;99.90;;;;;;4990109;28;20039;-61
2021/12/03 22:12:53;;;;;;;83.00;49.80;;;6.20;99.90;;;;;;4990367;28;20069;-62
2021/12/03 22:15:20;;;;;;;92.45;55.05;;;4.20;99.90;;;;;;4991489;28;20046;-61
2021/12/03 22:17:45;;;;;;;93.95;53.60;;;3.60;99.90;;;;;;5019352;28;20052;-62
2021/12/03 22:20:11;;;;;;;77.00;45.50;;;5.30;99.90;;;;;;5000349;28;20046;-62
2021/12/03 22:22:37;;;;;;;98.25;55.63;;;5.10;99.90;;;;;;5008038;28;20046;-62
2021/12/03 22:25:03;;;;;;;76.07;46.20;;;3.30;99.90;;;;;;4998878;28;20460;-62
2021/12/03 22:27:29;;;;;;;79.22;47.50;;;4.90;99.90;;;;;;5002018;28;20461;-62
2021/12/03 22:29:55;;;;;;;94.93;55.33;;;4.20;99.90;;;;;;5001330;28;20130;-61
2021/12/03 22:32:21;;;;;;;83.28;48.65;;;4.40;99.90;;;;;;4981859;28;20053;-62
2021/12/03 22:34:47;;;;;;;91.28;52.20;;;3.90;99.90;;;;;;4994830;28;20163;-62
2021/12/03 22:37:13;;;;;;;95.88;53.20;;;4.90;99.90;;;;;;4999684;28;20447;-61
2021/12/03 22:39:39;;;;;;;98.47;54.50;;;5.90;99.90;;;;;;5008503;28;20038;-62
2021/12/03 22:42:05;;;;;;;94.07;54.15;;;6.20;99.90;;;;;;5001483;28;20037;-62
2021/12/03 22:44:31;;;;;;;91.88;54.15;;;5.00;99.90;;;;;;5023836;28;20128;-61
2021/12/03 22:52:11;;;;;;;93.65;52.30;;;6.10;99.90;;;;;;4999097;28;19979;-62
2021/12/03 22:54:40;;;;;;;84.20;48.97;;;2.90;99.90;;;;;;4999039;28;20046;-62
2021/12/03 22:57:07;;;;;;;102.38;55.28;;;5.00;99.90;;;;;;4997017;28;20109;-62
2021/12/03 22:59:34;;;;;;;105.13;56.70;;;5.20;99.90;;;;;;5002291;28;20048;-62
2021/12/03 23:02:02;;;;;;;98.85;54.65;;;5.90;99.90;;;;;;5001301;28;20068;-61
2021/12/03 23:04:29;;;;;;;100.47;54.67;;;6.10;99.90;;;;;;5022887;28;20077;-61
2021/12/03 23:06:54;;;;;;;99.00;54.42;;;3.70;99.90;;;;;;5000155;28;20054;-61
2021/12/03 23:09:20;;;;;;;94.70;52.92;;;2.80;99.90;;;;;;4999134;28;20151;-61
2021/12/03 23:11:46;;;;;;;93.38;51.22;;;4.90;99.90;;;;;;4989112;28;20129;-62
2021/12/03 23:14:13;;;;;;;104.65;55.30;;;3.30;99.90;;;;;;4998022;28;20121;-62
2021/12/03 23:16:39;;;;;;;97.63;54.83;;;3.40;99.90;;;;;;4998574;28;20042;-61
2021/12/03 23:19:05;;;;;;;105.55;55.85;;;3.50;99.90;;;;;;4999090;28;20045;-62
2021/12/03 23:21:31;;;;;;;99.38;53.22;;;2.90;99.90;;;;;;4990801;28;20038;-62
2021/12/03 23:23:57;;;;;;;105.03;55.95;;;2.80;99.90;;;;;;4997282;28;20523;-61
2021/12/03 23:26:23;;;;;;;99.45;53.17;;;4.40;99.90;;;;;;4998935;28;20066;-61
2021/12/03 23:28:49;;;;;;;105.25;54.40;;;5.00;99.90;;;;;;4997646;28;20038;-62
2021/12/03 23:31:17;;;;;;;95.65;53.05;;;3.00;99.90;;;;;;5003858;28;20041;-62
2021/12/03 23:33:43;;;;;;;103.35;55.28;;;6.00;99.90;;;;;;5001470;28;20520;-62
2021/12/03 23:36:11;;;;;;;91.72;49.20;;;3.20;99.90;;;;;;5024950;28;20080;-61
2021/12/03 23:38:37;;;;;;;98.63;51.55;;;3.60;99.90;;;;;;5002318;28;20046;-61
2021/12/03 23:41:03;;;;;;;95.60;50.47;;;5.40;99.90;;;;;;5026943;28;20108;-61
2021/12/03 23:43:29;;;;;;;107.43;53.35;;;5.90;99.90;;;;;;4984120;28;20058;-62
2021/12/03 23:45:55;;;;;;;100.97;52.63;;;2.60;99.90;;;;;;4999188;28;20045;-60
2021/12/03 23:48:22;;;;;;;103.38;52.25;;;5.80;99.90;;;;;;5000460;28;20500;-61
2021/12/03 23:50:47;;;;;;;90.45;47.47;;;3.20;99.90;;;;;;5002385;28;20033;-61
2021/12/03 23:53:13;;;;;;;95.95;50.60;;;3.80;99.90;;;;;;5002719;28;20041;-61
2021/12/03 23:55:39;;;;;;;97.60;52.70;;;3.30;99.90;;;;;;5001732;28;20038;-62
2021/12/03 23:58:06;;;;;;;101.22;53.28;;;2.80;99.90;;;;;;4999660;28;20048;-62
